sensor_id;sensor_type;location;lat;lon;timestamp;P1;durP1;ratioP1;P2;durP2;ratioP2
31872;SDS011;22407;42.820;23.374;2023-02-13T00:00:38;51.33;;;19.37;;
31872;SDS011;22407;42.820;23.374;2023-02-13T00:03:03;50.93;;;20.17;;
31872;SDS011;22407;42.820;23.374;2023-02-13T00:05:29;52.08;;;19.85;;
31872;SDS011;22407;42.820;23.374;2023-02-13T00:07:54;46.87;;;19.63;;
31872;SDS011;22407;42.820;23.374;2023-02-13T00:10:19;49.53;;;19.80;;
31872;SDS011;22407;42.820;23.374;2023-02-13T00:12:45;50.50;;;20.50;;
31872;SDS011;22407;42.820;23.374;2023-02-13T00:15:10;48.87;;;20.33;;
31872;SDS011;22407;42.820;23.374;2023-02-13T00:17:35;46.90;;;19.87;;
31872;SDS011;22407;42.820;23.374;2023-02-13T00:20:01;46.87;;;18.87;;
31872;SDS011;22407;42.820;23.374;2023-02-13T00:22:26;45.30;;;19.67;;
31872;SDS011;22407;42.820;23.374;2023-02-13T00:24:51;56.10;;;21.23;;
31872;SDS011;22407;42.820;23.374;2023-02-13T00:27:17;47.83;;;18.43;;
31872;SDS011;22407;42.820;23.374;2023-02-13T00:29:42;45.30;;;19.25;;
31872;SDS011;22407;42.820;23.374;2023-02-13T00:32:07;45.67;;;18.20;;
31872;SDS011;22407;42.820;23.374;2023-02-13T00:34:33;40.77;;;18.03;;
31872;SDS011;22407;42.820;23.374;2023-02-13T00:36:58;42.63;;;17.97;;
31872;SDS011;22407;42.820;23.374;2023-02-13T00:39:23;47.93;;;19.80;;
31872;SDS011;22407;42.820;23.374;2023-02-13T00:41:49;49.33;;;19.83;;
31872;SDS011;22407;42.820;23.374;2023-02-13T00:44:14;43.07;;;18.70;;
31872;SDS011;22407;42.820;23.374;2023-02-13T00:46:39;45.60;;;17.67;;
31872;SDS011;22407;42.820;23.374;2023-02-13T00:49:05;49.30;;;19.43;;
31872;SDS011;22407;42.820;23.374;2023-02-13T00:51:31;44.28;;;18.63;;
31872;SDS011;22407;42.820;23.374;2023-02-13T00:53:56;44.23;;;18.20;;
31872;SDS011;22407;42.820;23.374;2023-02-13T00:56:22;47.10;;;19.47;;
31872;SDS011;22407;42.820;23.374;2023-02-13T00:58:47;63.33;;;27.40;;
31872;SDS011;22407;42.820;23.374;2023-02-13T01:01:12;58.67;;;23.33;;
31872;SDS011;22407;42.820;23.374;2023-02-13T01:03:38;55.60;;;23.30;;
31872;SDS011;22407;42.820;23.374;2023-02-13T01:06:03;62.80;;;26.33;;
31872;SDS011;22407;42.820;23.374;2023-02-13T01:08:28;56.40;;;22.77;;
31872;SDS011;22407;42.820;23.374;2023-02-13T01:10:54;45.97;;;18.93;;
31872;SDS011;22407;42.820;23.374;2023-02-13T01:13:20;44.90;;;18.48;;
31872;SDS011;22407;42.820;23.374;2023-02-13T01:15:45;43.33;;;18.70;;
31872;SDS011;22407;42.820;23.374;2023-02-13T01:18:12;50.17;;;19.50;;
31872;SDS011;22407;42.820;23.374;2023-02-13T01:20:37;49.95;;;21.77;;
31872;SDS011;22407;42.820;23.374;2023-02-13T01:23:02;48.83;;;19.83;;
31872;SDS011;22407;42.820;23.374;2023-02-13T01:25:28;100.63;;;37.77;;
31872;SDS011;22407;42.820;23.374;2023-02-13T01:27:54;112.87;;;43.77;;
31872;SDS011;22407;42.820;23.374;2023-02-13T01:30:19;115.80;;;43.77;;
31872;SDS011;22407;42.820;23.374;2023-02-13T01:32:45;127.63;;;46.42;;
31872;SDS011;22407;42.820;23.374;2023-02-13T01:35:11;126.70;;;48.47;;
31872;SDS011;22407;42.820;23.374;2023-02-13T01:37:37;131.25;;;47.53;;
31872;SDS011;22407;42.820;23.374;2023-02-13T01:40:03;128.70;;;51.20;;
31872;SDS011;22407;42.820;23.374;2023-02-13T01:42:30;132.00;;;51.37;;
31872;SDS011;22407;42.820;23.374;2023-02-13T01:44:56;121.03;;;48.53;;
31872;SDS011;22407;42.820;23.374;2023-02-13T01:47:29;143.48;;;54.30;;
31872;SDS011;22407;42.820;23.374;2023-02-13T01:50:08;137.68;;;50.83;;
31872;SDS011;22407;42.820;23.374;2023-02-13T01:52:35;123.95;;;48.55;;
31872;SDS011;22407;42.820;23.374;2023-02-13T01:55:02;138.90;;;51.00;;
31872;SDS011;22407;42.820;23.374;2023-02-13T01:57:27;139.65;;;51.08;;
31872;SDS011;22407;42.820;23.374;2023-02-13T01:59:59;125.28;;;47.08;;
31872;SDS011;22407;42.820;23.374;2023-02-13T02:02:26;131.67;;;48.17;;
31872;SDS011;22407;42.820;23.374;2023-02-13T02:04:52;133.85;;;48.42;;
31872;SDS011;22407;42.820;23.374;2023-02-13T02:07:27;127.17;;;47.90;;
31872;SDS011;22407;42.820;23.374;2023-02-13T02:09:55;125.97;;;45.85;;
31872;SDS011;22407;42.820;23.374;2023-02-13T02:12:28;121.45;;;45.42;;
31872;SDS011;22407;42.820;23.374;2023-02-13T02:14:56;130.10;;;51.88;;
31872;SDS011;22407;42.820;23.374;2023-02-13T02:17:23;124.30;;;47.23;;
31872;SDS011;22407;42.820;23.374;2023-02-13T02:22:29;118.20;;;43.63;;
31872;SDS011;22407;42.820;23.374;2023-02-13T02:34:09;103.75;;;41.63;;
31872;SDS011;22407;42.820;23.374;2023-02-13T02:47:08;86.28;;;34.30;;
31872;SDS011;22407;42.820;23.374;2023-02-13T02:49:52;78.80;;;33.17;;
31872;SDS011;22407;42.820;23.374;2023-02-13T02:55:13;69.75;;;28.60;;
31872;SDS011;22407;42.820;23.374;2023-02-13T02:57:46;71.50;;;29.17;;
31872;SDS011;22407;42.820;23.374;2023-02-13T03:00:32;90.90;;;34.45;;
31872;SDS011;22407;42.820;23.374;2023-02-13T03:03:18;84.57;;;32.33;;
31872;SDS011;22407;42.820;23.374;2023-02-13T03:06:03;89.05;;;35.28;;
31872;SDS011;22407;42.820;23.374;2023-02-13T03:08:36;87.50;;;35.85;;
31872;SDS011;22407;42.820;23.374;2023-02-13T03:11:20;85.13;;;35.13;;
31872;SDS011;22407;42.820;23.374;2023-02-13T03:14:04;81.45;;;33.70;;
31872;SDS011;22407;42.820;23.374;2023-02-13T03:16:31;79.28;;;31.50;;
31872;SDS011;22407;42.820;23.374;2023-02-13T03:19:37;73.90;;;28.95;;
31872;SDS011;22407;42.820;23.374;2023-02-13T03:22:30;69.72;;;28.15;;
31872;SDS011;22407;42.820;23.374;2023-02-13T03:27:44;76.70;;;31.98;;
31872;SDS011;22407;42.820;23.374;2023-02-13T03:33:22;80.20;;;32.60;;
31872;SDS011;22407;42.820;23.374;2023-02-13T03:35:52;73.70;;;30.10;;
31872;SDS011;22407;42.820;23.374;2023-02-13T03:39:02;68.13;;;28.33;;
31872;SDS011;22407;42.820;23.374;2023-02-13T03:41:25;67.10;;;28.17;;
31872;SDS011;22407;42.820;23.374;2023-02-13T03:46:27;71.32;;;28.45;;
31872;SDS011;22407;42.820;23.374;2023-02-13T03:48:55;70.95;;;28.73;;
31872;SDS011;22407;42.820;23.374;2023-02-13T03:54:15;76.05;;;30.05;;
31872;SDS011;22407;42.820;23.374;2023-02-13T03:56:41;76.25;;;28.73;;
31872;SDS011;22407;42.820;23.374;2023-02-13T03:59:27;72.20;;;27.93;;
31872;SDS011;22407;42.820;23.374;2023-02-13T04:02:05;76.55;;;28.20;;
31872;SDS011;22407;42.820;23.374;2023-02-13T04:04:39;75.93;;;26.52;;
31872;SDS011;22407;42.820;23.374;2023-02-13T04:07:09;76.95;;;26.70;;
31872;SDS011;22407;42.820;23.374;2023-02-13T04:09:36;76.97;;;27.25;;
31872;SDS011;22407;42.820;23.374;2023-02-13T04:17:10;90.05;;;32.95;;
31872;SDS011;22407;42.820;23.374;2023-02-13T04:19:36;98.65;;;36.40;;
31872;SDS011;22407;42.820;23.374;2023-02-13T04:22:02;89.47;;;32.13;;
31872;SDS011;22407;42.820;23.374;2023-02-13T04:24:27;73.95;;;27.38;;
31872;SDS011;22407;42.820;23.374;2023-02-13T04:26:53;69.47;;;25.30;;
31872;SDS011;22407;42.820;23.374;2023-02-13T04:29:22;77.15;;;28.08;;
31872;SDS011;22407;42.820;23.374;2023-02-13T04:31:48;120.47;;;43.47;;
31872;SDS011;22407;42.820;23.374;2023-02-13T04:34:13;279.37;;;84.30;;
31872;SDS011;22407;42.820;23.374;2023-02-13T04:36:39;154.40;;;46.30;;
31872;SDS011;22407;42.820;23.374;2023-02-13T04:39:04;88.17;;;30.33;;
31872;SDS011;22407;42.820;23.374;2023-02-13T04:41:29;78.93;;;28.30;;
31872;SDS011;22407;42.820;23.374;2023-02-13T04:43:54;70.93;;;24.93;;
31872;SDS011;22407;42.820;23.374;2023-02-13T04:46:20;73.03;;;24.80;;
31872;SDS011;22407;42.820;23.374;2023-02-13T04:48:45;67.80;;;26.43;;
31872;SDS011;22407;42.820;23.374;2023-02-13T04:51:10;69.10;;;25.20;;
31872;SDS011;22407;42.820;23.374;2023-02-13T04:53:36;68.57;;;23.17;;
31872;SDS011;22407;42.820;23.374;2023-02-13T04:56:01;65.00;;;23.43;;
31872;SDS011;22407;42.820;23.374;2023-02-13T04:58:26;62.85;;;22.10;;
31872;SDS011;22407;42.820;23.374;2023-02-13T05:00:51;66.67;;;23.40;;
31872;SDS011;22407;42.820;23.374;2023-02-13T05:03:17;66.40;;;22.63;;
31872;SDS011;22407;42.820;23.374;2023-02-13T05:05:42;60.67;;;22.90;;
31872;SDS011;22407;42.820;23.374;2023-02-13T05:08:08;65.93;;;23.30;;
31872;SDS011;22407;42.820;23.374;2023-02-13T05:10:34;67.80;;;23.33;;
31872;SDS011;22407;42.820;23.374;2023-02-13T05:13:00;58.63;;;21.47;;
31872;SDS011;22407;42.820;23.374;2023-02-13T05:15:25;63.50;;;21.67;;
31872;SDS011;22407;42.820;23.374;2023-02-13T05:17:51;84.60;;;28.57;;
31872;SDS011;22407;42.820;23.374;2023-02-13T05:20:16;134.00;;;44.30;;
31872;SDS011;22407;42.820;23.374;2023-02-13T05:22:48;123.15;;;41.17;;
31872;SDS011;22407;42.820;23.374;2023-02-13T05:25:33;76.63;;;27.88;;
31872;SDS011;22407;42.820;23.374;2023-02-13T05:27:59;65.77;;;25.53;;
31872;SDS011;22407;42.820;23.374;2023-02-13T05:30:24;61.80;;;23.60;;
31872;SDS011;22407;42.820;23.374;2023-02-13T05:32:50;59.78;;;21.15;;
31872;SDS011;22407;42.820;23.374;2023-02-13T05:35:16;72.60;;;25.77;;
31872;SDS011;22407;42.820;23.374;2023-02-13T05:37:41;72.60;;;26.30;;
31872;SDS011;22407;42.820;23.374;2023-02-13T05:40:07;79.87;;;27.77;;
31872;SDS011;22407;42.820;23.374;2023-02-13T05:42:33;98.85;;;36.10;;
31872;SDS011;22407;42.820;23.374;2023-02-13T05:44:58;77.20;;;27.17;;
31872;SDS011;22407;42.820;23.374;2023-02-13T05:47:23;65.57;;;24.77;;
31872;SDS011;22407;42.820;23.374;2023-02-13T05:49:48;65.10;;;23.63;;
31872;SDS011;22407;42.820;23.374;2023-02-13T05:52:13;85.47;;;32.27;;
31872;SDS011;22407;42.820;23.374;2023-02-13T05:54:39;84.53;;;31.27;;
31872;SDS011;22407;42.820;23.374;2023-02-13T05:57:04;83.60;;;31.07;;
31872;SDS011;22407;42.820;23.374;2023-02-13T05:59:29;82.93;;;31.43;;
31872;SDS011;22407;42.820;23.374;2023-02-13T06:01:55;84.53;;;32.33;;
31872;SDS011;22407;42.820;23.374;2023-02-13T06:04:20;79.88;;;29.40;;
31872;SDS011;22407;42.820;23.374;2023-02-13T06:06:45;82.57;;;31.27;;
31872;SDS011;22407;42.820;23.374;2023-02-13T06:09:11;84.67;;;33.63;;
31872;SDS011;22407;42.820;23.374;2023-02-13T06:11:36;68.63;;;26.80;;
31872;SDS011;22407;42.820;23.374;2023-02-13T06:14:01;72.20;;;26.97;;
31872;SDS011;22407;42.820;23.374;2023-02-13T06:16:27;75.93;;;31.27;;
31872;SDS011;22407;42.820;23.374;2023-02-13T06:18:54;81.25;;;32.08;;
31872;SDS011;22407;42.820;23.374;2023-02-13T06:21:19;84.43;;;32.83;;
31872;SDS011;22407;42.820;23.374;2023-02-13T06:23:44;82.00;;;33.23;;
31872;SDS011;22407;42.820;23.374;2023-02-13T06:26:10;86.43;;;34.97;;
31872;SDS011;22407;42.820;23.374;2023-02-13T06:28:35;110.20;;;41.63;;
31872;SDS011;22407;42.820;23.374;2023-02-13T06:31:00;106.10;;;39.57;;
31872;SDS011;22407;42.820;23.374;2023-02-13T06:33:26;147.83;;;53.50;;
31872;SDS011;22407;42.820;23.374;2023-02-13T06:35:51;219.68;;;81.88;;
31872;SDS011;22407;42.820;23.374;2023-02-13T06:38:17;193.60;;;74.63;;
31872;SDS011;22407;42.820;23.374;2023-02-13T06:40:46;214.85;;;79.07;;
31872;SDS011;22407;42.820;23.374;2023-02-13T06:43:11;191.77;;;71.70;;
31872;SDS011;22407;42.820;23.374;2023-02-13T06:45:36;163.37;;;63.70;;
31872;SDS011;22407;42.820;23.374;2023-02-13T06:48:02;149.20;;;54.00;;
31872;SDS011;22407;42.820;23.374;2023-02-13T06:50:27;141.30;;;51.77;;
31872;SDS011;22407;42.820;23.374;2023-02-13T06:52:52;142.77;;;52.53;;
31872;SDS011;22407;42.820;23.374;2023-02-13T06:55:17;172.77;;;67.73;;
31872;SDS011;22407;42.820;23.374;2023-02-13T06:57:43;226.93;;;90.13;;
31872;SDS011;22407;42.820;23.374;2023-02-13T07:00:09;258.48;;;112.25;;
31872;SDS011;22407;42.820;23.374;2023-02-13T07:02:37;242.98;;;96.82;;
31872;SDS011;22407;42.820;23.374;2023-02-13T07:05:02;247.00;;;87.53;;
31872;SDS011;22407;42.820;23.374;2023-02-13T07:07:31;277.07;;;100.17;;
31872;SDS011;22407;42.820;23.374;2023-02-13T07:09:56;258.33;;;93.55;;
31872;SDS011;22407;42.820;23.374;2023-02-13T07:12:21;282.80;;;99.83;;
31872;SDS011;22407;42.820;23.374;2023-02-13T07:14:47;246.43;;;88.53;;
31872;SDS011;22407;42.820;23.374;2023-02-13T07:17:12;242.97;;;89.33;;
31872;SDS011;22407;42.820;23.374;2023-02-13T07:19:37;268.60;;;91.83;;
31872;SDS011;22407;42.820;23.374;2023-02-13T07:22:02;272.43;;;89.70;;
31872;SDS011;22407;42.820;23.374;2023-02-13T07:24:28;248.27;;;78.83;;
31872;SDS011;22407;42.820;23.374;2023-02-13T07:26:53;246.93;;;80.83;;
31872;SDS011;22407;42.820;23.374;2023-02-13T07:29:18;211.53;;;71.93;;
31872;SDS011;22407;42.820;23.374;2023-02-13T07:31:44;166.77;;;56.83;;
31872;SDS011;22407;42.820;23.374;2023-02-13T07:34:09;164.00;;;52.67;;
31872;SDS011;22407;42.820;23.374;2023-02-13T07:36:34;151.83;;;50.57;;
31872;SDS011;22407;42.820;23.374;2023-02-13T07:39:00;184.00;;;58.80;;
31872;SDS011;22407;42.820;23.374;2023-02-13T07:41:25;162.30;;;51.57;;
31872;SDS011;22407;42.820;23.374;2023-02-13T07:43:51;166.85;;;58.05;;
31872;SDS011;22407;42.820;23.374;2023-02-13T07:46:16;122.57;;;43.10;;
31872;SDS011;22407;42.820;23.374;2023-02-13T07:48:41;111.03;;;41.87;;
31872;SDS011;22407;42.820;23.374;2023-02-13T07:51:07;99.27;;;35.80;;
31872;SDS011;22407;42.820;23.374;2023-02-13T07:53:32;90.50;;;34.30;;
31872;SDS011;22407;42.820;23.374;2023-02-13T07:55:57;84.40;;;28.77;;
31872;SDS011;22407;42.820;23.374;2023-02-13T07:58:22;92.43;;;31.60;;
31872;SDS011;22407;42.820;23.374;2023-02-13T08:00:48;90.47;;;29.70;;
31872;SDS011;22407;42.820;23.374;2023-02-13T08:03:13;80.80;;;30.70;;
31872;SDS011;22407;42.820;23.374;2023-02-13T08:05:38;71.20;;;24.77;;
31872;SDS011;22407;42.820;23.374;2023-02-13T08:08:05;72.40;;;25.20;;
31872;SDS011;22407;42.820;23.374;2023-02-13T08:10:30;88.53;;;32.08;;
31872;SDS011;22407;42.820;23.374;2023-02-13T08:13:14;71.80;;;26.92;;
31872;SDS011;22407;42.820;23.374;2023-02-13T08:15:40;79.27;;;27.40;;
31872;SDS011;22407;42.820;23.374;2023-02-13T08:18:05;73.70;;;25.90;;
31872;SDS011;22407;42.820;23.374;2023-02-13T08:20:31;60.37;;;22.60;;
31872;SDS011;22407;42.820;23.374;2023-02-13T08:23:03;62.97;;;24.35;;
31872;SDS011;22407;42.820;23.374;2023-02-13T08:25:28;59.70;;;22.47;;
31872;SDS011;22407;42.820;23.374;2023-02-13T08:27:53;62.55;;;22.52;;
31872;SDS011;22407;42.820;23.374;2023-02-13T08:30:19;86.00;;;29.57;;
31872;SDS011;22407;42.820;23.374;2023-02-13T08:32:44;65.17;;;21.27;;
31872;SDS011;22407;42.820;23.374;2023-02-13T08:35:09;59.33;;;21.07;;
31872;SDS011;22407;42.820;23.374;2023-02-13T08:37:35;54.53;;;19.20;;
31872;SDS011;22407;42.820;23.374;2023-02-13T08:40:00;57.50;;;19.93;;
31872;SDS011;22407;42.820;23.374;2023-02-13T08:42:25;67.53;;;23.10;;
31872;SDS011;22407;42.820;23.374;2023-02-13T08:44:51;89.83;;;31.57;;
31872;SDS011;22407;42.820;23.374;2023-02-13T08:47:16;60.50;;;24.33;;
31872;SDS011;22407;42.820;23.374;2023-02-13T08:49:41;70.17;;;25.60;;
31872;SDS011;22407;42.820;23.374;2023-02-13T08:52:07;99.90;;;33.08;;
31872;SDS011;22407;42.820;23.374;2023-02-13T08:54:32;75.60;;;27.60;;
31872;SDS011;22407;42.820;23.374;2023-02-13T08:56:58;78.57;;;27.57;;
31872;SDS011;22407;42.820;23.374;2023-02-13T08:59:23;58.27;;;19.70;;
31872;SDS011;22407;42.820;23.374;2023-02-13T09:01:48;74.53;;;24.50;;
31872;SDS011;22407;42.820;23.374;2023-02-13T09:04:13;84.47;;;26.27;;
31872;SDS011;22407;42.820;23.374;2023-02-13T09:06:42;53.25;;;19.80;;
31872;SDS011;22407;42.820;23.374;2023-02-13T09:09:08;51.15;;;17.92;;
31872;SDS011;22407;42.820;23.374;2023-02-13T09:11:33;50.20;;;18.83;;
31872;SDS011;22407;42.820;23.374;2023-02-13T09:13:59;51.40;;;20.60;;
31872;SDS011;22407;42.820;23.374;2023-02-13T09:16:24;50.10;;;18.27;;
31872;SDS011;22407;42.820;23.374;2023-02-13T09:18:49;56.50;;;19.40;;
31872;SDS011;22407;42.820;23.374;2023-02-13T09:21:16;52.20;;;18.23;;
31872;SDS011;22407;42.820;23.374;2023-02-13T09:23:41;51.35;;;17.55;;
31872;SDS011;22407;42.820;23.374;2023-02-13T09:26:07;52.67;;;17.17;;
31872;SDS011;22407;42.820;23.374;2023-02-13T09:28:33;47.92;;;17.30;;
31872;SDS011;22407;42.820;23.374;2023-02-13T09:30:59;45.27;;;16.70;;
31872;SDS011;22407;42.820;23.374;2023-02-13T09:33:28;43.80;;;17.15;;
31872;SDS011;22407;42.820;23.374;2023-02-13T09:35:53;47.10;;;16.20;;
31872;SDS011;22407;42.820;23.374;2023-02-13T09:38:19;44.57;;;18.17;;
31872;SDS011;22407;42.820;23.374;2023-02-13T09:40:45;56.70;;;20.93;;
31872;SDS011;22407;42.820;23.374;2023-02-13T09:43:15;47.17;;;18.15;;
31872;SDS011;22407;42.820;23.374;2023-02-13T09:45:42;49.88;;;17.05;;
31872;SDS011;22407;42.820;23.374;2023-02-13T09:48:09;45.90;;;17.05;;
31872;SDS011;22407;42.820;23.374;2023-02-13T09:50:39;52.33;;;18.77;;
31872;SDS011;22407;42.820;23.374;2023-02-13T09:53:04;58.33;;;21.40;;
31872;SDS011;22407;42.820;23.374;2023-02-13T09:55:46;49.83;;;17.43;;
31872;SDS011;22407;42.820;23.374;2023-02-13T10:00:45;43.97;;;16.50;;
31872;SDS011;22407;42.820;23.374;2023-02-13T10:03:45;45.70;;;16.13;;
31872;SDS011;22407;42.820;23.374;2023-02-13T10:06:07;46.95;;;16.00;;
31872;SDS011;22407;42.820;23.374;2023-02-13T10:13:47;41.00;;;15.27;;
31872;SDS011;22407;42.820;23.374;2023-02-13T10:16:37;46.33;;;17.20;;
31872;SDS011;22407;42.820;23.374;2023-02-13T10:21:32;57.05;;;19.33;;
31872;SDS011;22407;42.820;23.374;2023-02-13T10:24:16;42.20;;;16.23;;
31872;SDS011;22407;42.820;23.374;2023-02-13T10:26:44;43.55;;;16.63;;
31872;SDS011;22407;42.820;23.374;2023-02-13T10:31:54;43.28;;;15.32;;
31872;SDS011;22407;42.820;23.374;2023-02-13T10:34:24;47.80;;;17.60;;
31872;SDS011;22407;42.820;23.374;2023-02-13T10:36:50;40.07;;;13.87;;
31872;SDS011;22407;42.820;23.374;2023-02-13T10:39:21;40.30;;;14.20;;
31872;SDS011;22407;42.820;23.374;2023-02-13T10:41:49;53.53;;;18.73;;
31872;SDS011;22407;42.820;23.374;2023-02-13T10:47:02;47.47;;;17.33;;
31872;SDS011;22407;42.820;23.374;2023-02-13T10:55:22;48.78;;;15.32;;
31872;SDS011;22407;42.820;23.374;2023-02-13T11:02:49;41.83;;;14.93;;
31872;SDS011;22407;42.820;23.374;2023-02-13T11:07:39;45.07;;;15.60;;
31872;SDS011;22407;42.820;23.374;2023-02-13T11:10:12;60.15;;;21.20;;
31872;SDS011;22407;42.820;23.374;2023-02-13T11:12:37;43.63;;;16.63;;
31872;SDS011;22407;42.820;23.374;2023-02-13T11:15:04;54.47;;;16.77;;
31872;SDS011;22407;42.820;23.374;2023-02-13T11:17:30;44.47;;;15.63;;
31872;SDS011;22407;42.820;23.374;2023-02-13T11:19:57;40.57;;;13.80;;
31872;SDS011;22407;42.820;23.374;2023-02-13T11:24:52;40.45;;;16.65;;
31872;SDS011;22407;42.820;23.374;2023-02-13T11:27:22;40.72;;;15.05;;
31872;SDS011;22407;42.820;23.374;2023-02-13T11:29:53;43.35;;;16.13;;
31872;SDS011;22407;42.820;23.374;2023-02-13T11:32:26;38.33;;;14.03;;
31872;SDS011;22407;42.820;23.374;2023-02-13T11:34:52;38.47;;;14.60;;
31872;SDS011;22407;42.820;23.374;2023-02-13T11:39:49;38.55;;;13.93;;
31872;SDS011;22407;42.820;23.374;2023-02-13T11:42:33;37.75;;;13.57;;
31872;SDS011;22407;42.820;23.374;2023-02-13T11:45:04;37.87;;;14.90;;
31872;SDS011;22407;42.820;23.374;2023-02-13T11:47:35;34.97;;;13.68;;
31872;SDS011;22407;42.820;23.374;2023-02-13T11:50:00;32.85;;;12.20;;
31872;SDS011;22407;42.820;23.374;2023-02-13T11:52:27;36.15;;;14.13;;
31872;SDS011;22407;42.820;23.374;2023-02-13T11:55:00;33.47;;;12.97;;
31872;SDS011;22407;42.820;23.374;2023-02-13T11:57:35;32.10;;;13.52;;
31872;SDS011;22407;42.820;23.374;2023-02-13T12:00:19;39.25;;;14.63;;
31872;SDS011;22407;42.820;23.374;2023-02-13T12:02:47;35.72;;;13.98;;
31872;SDS011;22407;42.820;23.374;2023-02-13T12:07:38;24.50;;;10.33;;
31872;SDS011;22407;42.820;23.374;2023-02-13T12:10:07;28.60;;;10.60;;
31872;SDS011;22407;42.820;23.374;2023-02-13T12:12:53;25.13;;;9.73;;
31872;SDS011;22407;42.820;23.374;2023-02-13T12:15:23;25.95;;;10.23;;
31872;SDS011;22407;42.820;23.374;2023-02-13T12:17:56;22.67;;;9.32;;
31872;SDS011;22407;42.820;23.374;2023-02-13T12:20:23;25.88;;;9.82;;
31872;SDS011;22407;42.820;23.374;2023-02-13T12:23:01;26.70;;;9.40;;
31872;SDS011;22407;42.820;23.374;2023-02-13T12:25:33;26.25;;;9.77;;
31872;SDS011;22407;42.820;23.374;2023-02-13T12:28:08;28.25;;;12.60;;
31872;SDS011;22407;42.820;23.374;2023-02-13T12:38:12;27.10;;;9.03;;
31872;SDS011;22407;42.820;23.374;2023-02-13T12:45:52;24.10;;;8.35;;
31872;SDS011;22407;42.820;23.374;2023-02-13T12:53:29;23.63;;;9.17;;
31872;SDS011;22407;42.820;23.374;2023-02-13T13:01:36;23.67;;;7.13;;
31872;SDS011;22407;42.820;23.374;2023-02-13T13:06:36;17.37;;;7.17;;
31872;SDS011;22407;42.820;23.374;2023-02-13T13:11:35;18.10;;;7.50;;
31872;SDS011;22407;42.820;23.374;2023-02-13T13:14:16;20.65;;;8.30;;
31872;SDS011;22407;42.820;23.374;2023-02-13T13:21:59;16.10;;;6.65;;
31872;SDS011;22407;42.820;23.374;2023-02-13T13:27:14;16.70;;;6.85;;
31872;SDS011;22407;42.820;23.374;2023-02-13T13:29:45;18.42;;;7.13;;
31872;SDS011;22407;42.820;23.374;2023-02-13T13:32:13;15.05;;;6.47;;
31872;SDS011;22407;42.820;23.374;2023-02-13T13:34:41;16.52;;;6.85;;
31872;SDS011;22407;42.820;23.374;2023-02-13T13:37:10;16.77;;;6.87;;
31872;SDS011;22407;42.820;23.374;2023-02-13T13:42:28;15.77;;;6.17;;
31872;SDS011;22407;42.820;23.374;2023-02-13T13:54:48;14.90;;;6.28;;
31872;SDS011;22407;42.820;23.374;2023-02-13T13:57:22;18.77;;;7.65;;
31872;SDS011;22407;42.820;23.374;2023-02-13T14:07:15;19.73;;;8.17;;
31872;SDS011;22407;42.820;23.374;2023-02-13T14:09:41;16.90;;;6.85;;
31872;SDS011;22407;42.820;23.374;2023-02-13T14:14:48;15.43;;;6.00;;
31872;SDS011;22407;42.820;23.374;2023-02-13T14:17:13;22.73;;;7.53;;
31872;SDS011;22407;42.820;23.374;2023-02-13T14:19:49;22.85;;;7.53;;
31872;SDS011;22407;42.820;23.374;2023-02-13T14:27:19;18.52;;;6.78;;
31872;SDS011;22407;42.820;23.374;2023-02-13T14:29:46;19.17;;;7.45;;
31872;SDS011;22407;42.820;23.374;2023-02-13T14:32:24;15.95;;;6.63;;
31872;SDS011;22407;42.820;23.374;2023-02-13T14:35:00;18.17;;;7.03;;
31872;SDS011;22407;42.820;23.374;2023-02-13T14:37:27;20.00;;;7.95;;
31872;SDS011;22407;42.820;23.374;2023-02-13T14:42:39;19.35;;;7.70;;
31872;SDS011;22407;42.820;23.374;2023-02-13T14:45:10;29.13;;;10.65;;
31872;SDS011;22407;42.820;23.374;2023-02-13T14:47:41;23.17;;;8.70;;
31872;SDS011;22407;42.820;23.374;2023-02-13T14:50:14;19.75;;;8.07;;
31872;SDS011;22407;42.820;23.374;2023-02-13T14:52:41;20.15;;;7.10;;
31872;SDS011;22407;42.820;23.374;2023-02-13T14:55:14;18.75;;;7.43;;
31872;SDS011;22407;42.820;23.374;2023-02-13T14:57:42;20.13;;;7.78;;
31872;SDS011;22407;42.820;23.374;2023-02-13T15:02:46;29.42;;;10.05;;
31872;SDS011;22407;42.820;23.374;2023-02-13T15:05:14;44.10;;;13.60;;
31872;SDS011;22407;42.820;23.374;2023-02-13T15:07:43;44.30;;;15.00;;
31872;SDS011;22407;42.820;23.374;2023-02-13T15:12:57;19.33;;;9.07;;
31872;SDS011;22407;42.820;23.374;2023-02-13T15:15:30;23.10;;;9.07;;
31872;SDS011;22407;42.820;23.374;2023-02-13T15:18:03;21.35;;;9.20;;
31872;SDS011;22407;42.820;23.374;2023-02-13T15:20:32;25.27;;;10.00;;
31872;SDS011;22407;42.820;23.374;2023-02-13T15:22:58;24.73;;;9.30;;
31872;SDS011;22407;42.820;23.374;2023-02-13T15:25:24;20.93;;;8.30;;
31872;SDS011;22407;42.820;23.374;2023-02-13T15:27:53;22.75;;;9.00;;
31872;SDS011;22407;42.820;23.374;2023-02-13T15:30:21;22.60;;;8.65;;
31872;SDS011;22407;42.820;23.374;2023-02-13T15:33:00;23.52;;;9.25;;
31872;SDS011;22407;42.820;23.374;2023-02-13T15:35:30;21.65;;;8.93;;
31872;SDS011;22407;42.820;23.374;2023-02-13T15:37:55;26.20;;;9.87;;
31872;SDS011;22407;42.820;23.374;2023-02-13T15:40:27;24.02;;;9.20;;
31872;SDS011;22407;42.820;23.374;2023-02-13T15:42:53;24.20;;;9.13;;
31872;SDS011;22407;42.820;23.374;2023-02-13T15:45:19;19.45;;;8.27;;
31872;SDS011;22407;42.820;23.374;2023-02-13T15:47:45;19.77;;;7.82;;
31872;SDS011;22407;42.820;23.374;2023-02-13T15:50:15;20.73;;;8.52;;
31872;SDS011;22407;42.820;23.374;2023-02-13T15:52:41;22.47;;;9.00;;
31872;SDS011;22407;42.820;23.374;2023-02-13T15:55:14;26.60;;;11.10;;
31872;SDS011;22407;42.820;23.374;2023-02-13T15:57:42;23.13;;;9.55;;
31872;SDS011;22407;42.820;23.374;2023-02-13T16:00:08;24.40;;;9.70;;
31872;SDS011;22407;42.820;23.374;2023-02-13T16:02:39;27.58;;;10.57;;
31872;SDS011;22407;42.820;23.374;2023-02-13T16:05:05;28.42;;;10.40;;
31872;SDS011;22407;42.820;23.374;2023-02-13T16:07:46;28.75;;;9.77;;
31872;SDS011;22407;42.820;23.374;2023-02-13T16:10:15;29.38;;;11.20;;
31872;SDS011;22407;42.820;23.374;2023-02-13T16:12:45;33.80;;;12.13;;
31872;SDS011;22407;42.820;23.374;2023-02-13T16:15:17;38.22;;;15.27;;
31872;SDS011;22407;42.820;23.374;2023-02-13T16:17:43;35.47;;;13.90;;
31872;SDS011;22407;42.820;23.374;2023-02-13T16:22:39;47.30;;;18.40;;
31872;SDS011;22407;42.820;23.374;2023-02-13T16:30:33;38.03;;;15.20;;
31872;SDS011;22407;42.820;23.374;2023-02-13T16:33:10;59.28;;;20.92;;
31872;SDS011;22407;42.820;23.374;2023-02-13T16:35:36;52.65;;;20.00;;
31872;SDS011;22407;42.820;23.374;2023-02-13T16:38:02;37.50;;;15.95;;
31872;SDS011;22407;42.820;23.374;2023-02-13T16:40:39;35.60;;;14.45;;
31872;SDS011;22407;42.820;23.374;2023-02-13T16:45:48;46.42;;;18.60;;
31872;SDS011;22407;42.820;23.374;2023-02-13T16:48:14;55.40;;;21.93;;
31872;SDS011;22407;42.820;23.374;2023-02-13T16:50:39;47.47;;;18.60;;
31872;SDS011;22407;42.820;23.374;2023-02-13T16:53:05;48.33;;;17.40;;
31872;SDS011;22407;42.820;23.374;2023-02-13T16:55:30;41.28;;;15.45;;